createdAt,value
2023-03-18T00:01:11.284Z,21.90
2023-03-18T00:03:40.786Z,23.00
2023-03-18T00:06:11.619Z,21.70
2023-03-18T00:08:40.215Z,24.88
2023-03-18T00:11:10.041Z,25.67
2023-03-18T00:13:38.435Z,26.38
2023-03-18T00:16:07.722Z,24.08
2023-03-18T00:18:36.654Z,23.85
2023-03-18T00:21:06.764Z,25.20
2023-03-18T00:23:35.607Z,23.95
2023-03-18T00:26:04.160Z,28.63
2023-03-18T00:28:32.669Z,28.80
2023-03-18T00:31:08.628Z,27.70
2023-03-18T00:33:38.119Z,28.42
2023-03-18T00:36:10.045Z,30.10
2023-03-18T00:38:38.456Z,29.17
2023-03-18T00:41:11.930Z,31.05
2023-03-18T00:43:47.063Z,34.97
2023-03-18T00:46:17.689Z,34.72
2023-03-18T00:48:46.785Z,30.20
2023-03-18T00:51:17.330Z,29.08
2023-03-18T00:53:47.717Z,30.55
2023-03-18T00:56:19.460Z,31.15
2023-03-18T00:58:48.027Z,30.80
2023-03-18T01:01:17.192Z,36.80
2023-03-18T01:03:46.188Z,38.03
2023-03-18T01:06:20.644Z,37.28
2023-03-18T01:08:48.660Z,37.38
2023-03-18T01:11:17.115Z,37.97
2023-03-18T01:13:46.003Z,39.05
2023-03-18T01:16:14.537Z,35.85
2023-03-18T01:18:42.932Z,34.90
2023-03-18T01:21:12.076Z,35.33
2023-03-18T01:23:42.363Z,35.20
2023-03-18T01:26:10.772Z,37.05
2023-03-18T01:28:38.785Z,34.55
2023-03-18T01:31:08.124Z,35.45
2023-03-18T01:33:36.780Z,35.88
2023-03-18T01:36:05.677Z,36.45
2023-03-18T01:38:33.776Z,37.33
2023-03-18T01:41:03.546Z,39.58
2023-03-18T01:43:34.921Z,35.90
2023-03-18T01:46:23.580Z,30.67
2023-03-18T01:48:52.731Z,31.70
2023-03-18T01:51:22.466Z,33.83
2023-03-18T01:53:51.582Z,34.28
2023-03-18T01:56:22.173Z,34.08
2023-03-18T01:58:53.620Z,33.30
2023-03-18T02:01:27.796Z,32.40
2023-03-18T02:03:57.023Z,32.15
2023-03-18T02:06:25.840Z,33.70
2023-03-18T02:08:54.080Z,32.25
2023-03-18T02:13:52.541Z,30.52
2023-03-18T02:16:25.617Z,32.22
2023-03-18T02:18:57.649Z,37.13
2023-03-18T02:21:38.847Z,34.85
2023-03-18T02:24:17.205Z,38.00
2023-03-18T02:26:52.621Z,34.65
2023-03-18T02:29:23.632Z,35.83
2023-03-18T02:31:52.480Z,38.70
2023-03-18T02:34:21.698Z,40.28
2023-03-18T02:36:49.864Z,40.55
2023-03-18T02:39:18.047Z,37.75
2023-03-18T02:41:46.218Z,35.28
2023-03-18T02:44:14.283Z,38.65
2023-03-18T02:46:53.939Z,38.72
2023-03-18T02:49:22.650Z,40.95
2023-03-18T02:51:51.589Z,39.33
2023-03-18T02:54:21.929Z,36.22
2023-03-18T02:56:50.006Z,34.03
2023-03-18T02:59:18.023Z,36.97
2023-03-18T03:01:50.272Z,39.75
2023-03-18T03:04:20.318Z,38.33
2023-03-18T03:06:48.299Z,36.47
2023-03-18T03:09:18.010Z,40.03
2023-03-18T03:11:47.471Z,38.35
2023-03-18T03:14:16.763Z,33.88
2023-03-18T03:16:45.194Z,34.85
2023-03-18T03:19:14.645Z,33.50
2023-03-18T03:21:42.529Z,31.85
2023-03-18T03:24:11.001Z,32.65
2023-03-18T03:26:39.305Z,35.60
2023-03-18T03:29:07.801Z,32.38
2023-03-18T03:31:36.790Z,33.85
2023-03-18T03:34:04.985Z,37.70
2023-03-18T03:36:34.483Z,43.67
2023-03-18T03:39:02.438Z,48.10
2023-03-18T03:41:30.382Z,50.88
2023-03-18T03:43:58.596Z,52.35
2023-03-18T03:46:26.637Z,50.78
2023-03-18T03:48:54.814Z,48.78
2023-03-18T03:51:22.747Z,47.85
2023-03-18T03:53:52.001Z,43.50
2023-03-18T03:56:19.958Z,46.15
2023-03-18T03:58:47.952Z,51.10
2023-03-18T04:01:15.959Z,46.97
2023-03-18T04:03:44.374Z,52.22
2023-03-18T04:06:12.450Z,47.33
2023-03-18T04:08:40.392Z,44.08
2023-03-18T04:11:10.065Z,49.10
2023-03-18T04:13:37.997Z,45.13
2023-03-18T04:16:07.803Z,41.40
2023-03-18T04:18:35.769Z,43.15
2023-03-18T04:21:03.729Z,43.42
2023-03-18T04:23:33.122Z,50.63
2023-03-18T04:26:01.611Z,46.03
2023-03-18T04:28:31.038Z,44.15
2023-03-18T04:30:59.716Z,52.35
2023-03-18T04:33:28.121Z,47.05
2023-03-18T04:35:56.384Z,49.17
2023-03-18T04:38:24.545Z,43.15
2023-03-18T04:40:52.656Z,47.10
2023-03-18T04:43:21.065Z,52.10
2023-03-18T04:45:50.383Z,48.63
2023-03-18T04:48:18.353Z,46.85
2023-03-18T04:50:46.741Z,48.58
2023-03-18T04:53:14.710Z,46.53
2023-03-18T04:55:43.500Z,46.72
2023-03-18T04:58:11.544Z,48.67
2023-03-18T05:00:39.566Z,32.75
2023-03-18T05:03:08.868Z,41.53
2023-03-18T05:05:38.660Z,45.13
2023-03-18T05:08:07.460Z,48.97
2023-03-18T05:10:36.088Z,44.80
2023-03-18T05:13:04.545Z,42.22
2023-03-18T05:15:32.765Z,48.10
2023-03-18T05:18:01.322Z,46.30
2023-03-18T05:20:30.667Z,50.50
2023-03-18T05:22:58.879Z,45.85
2023-03-18T05:25:27.218Z,50.03
2023-03-18T05:27:55.666Z,54.22
2023-03-18T05:30:23.931Z,50.78
2023-03-18T05:32:52.726Z,55.35
2023-03-18T05:35:21.994Z,54.60
2023-03-18T05:37:51.923Z,60.17
2023-03-18T05:40:19.991Z,57.85
2023-03-18T05:42:55.772Z,59.80
2023-03-18T05:45:24.685Z,60.30
2023-03-18T05:47:53.046Z,54.17
2023-03-18T05:50:30.114Z,50.55
2023-03-18T05:52:59.590Z,46.40
2023-03-18T05:55:28.281Z,45.30
2023-03-18T05:57:56.632Z,40.47
2023-03-18T06:00:25.685Z,38.00
2023-03-18T06:02:54.048Z,44.40
2023-03-18T06:05:22.664Z,41.53
2023-03-18T06:07:50.975Z,42.03
2023-03-18T06:10:20.489Z,38.88
2023-03-18T06:12:49.267Z,33.53
2023-03-18T06:15:17.282Z,35.95
2023-03-18T06:17:45.633Z,36.75
2023-03-18T06:20:15.762Z,42.15
2023-03-18T06:22:48.973Z,48.08
2023-03-18T06:25:20.689Z,46.25
2023-03-18T06:27:49.010Z,47.38
2023-03-18T06:30:18.033Z,51.58
2023-03-18T06:32:46.185Z,52.67
2023-03-18T06:35:15.542Z,56.22
2023-03-18T06:37:43.871Z,56.85
2023-03-18T06:40:13.250Z,53.15
2023-03-18T06:42:42.662Z,64.85
2023-03-18T06:45:11.706Z,72.65
2023-03-18T06:47:40.816Z,68.47
2023-03-18T06:50:09.404Z,60.33
2023-03-18T06:52:38.441Z,65.32
2023-03-18T06:55:07.731Z,73.75
2023-03-18T06:57:35.671Z,72.82
2023-03-18T07:00:06.168Z,70.82
2023-03-18T07:02:34.607Z,66.63
2023-03-18T07:05:02.648Z,66.78
2023-03-18T07:07:30.739Z,77.15
2023-03-18T07:09:59.096Z,70.60
2023-03-18T07:12:28.434Z,72.32
2023-03-18T07:14:56.334Z,77.45
2023-03-18T07:17:25.688Z,83.10
2023-03-18T07:19:53.968Z,78.75
2023-03-18T07:22:22.197Z,91.43
2023-03-18T07:24:50.324Z,93.63
2023-03-18T07:27:18.359Z,91.28
2023-03-18T07:29:46.627Z,96.10
2023-03-18T07:32:15.136Z,95.63
2023-03-18T07:34:44.541Z,107.28
2023-03-18T07:37:13.095Z,100.50
2023-03-18T07:39:41.258Z,105.65
2023-03-18T07:42:09.649Z,116.15
2023-03-18T07:44:37.891Z,113.40
2023-03-18T07:47:06.286Z,110.38
2023-03-18T07:49:34.748Z,107.50
2023-03-18T07:52:04.915Z,104.03
2023-03-18T07:54:33.302Z,106.72
2023-03-18T07:57:01.802Z,98.00
2023-03-18T07:59:30.100Z,75.78
2023-03-18T08:01:58.293Z,73.72
2023-03-18T08:04:26.435Z,75.57
2023-03-18T08:06:55.220Z,61.78
2023-03-18T08:09:26.863Z,45.80
2023-03-18T08:11:55.368Z,45.92
2023-03-18T08:14:23.510Z,39.25
2023-03-18T08:16:52.167Z,35.95
2023-03-18T08:19:20.213Z,34.83
2023-03-18T08:21:48.374Z,35.60
2023-03-18T08:24:18.408Z,31.38
2023-03-18T08:26:47.781Z,31.85
2023-03-18T08:29:15.798Z,33.03
2023-03-18T08:31:44.260Z,32.95
2023-03-18T08:34:12.405Z,30.17
2023-03-18T08:36:42.545Z,31.67
2023-03-18T08:39:11.153Z,30.65
2023-03-18T08:41:40.162Z,29.58
2023-03-18T08:44:10.791Z,33.05
2023-03-18T08:46:38.869Z,30.13
2023-03-18T08:49:07.674Z,29.50
2023-03-18T08:51:36.053Z,31.65
2023-03-18T08:54:04.106Z,28.33
2023-03-18T08:56:32.243Z,27.40
2023-03-18T08:59:00.409Z,27.90
2023-03-18T09:01:30.296Z,26.45
2023-03-18T09:03:59.503Z,28.65
2023-03-18T09:06:27.974Z,26.95
2023-03-18T09:08:56.128Z,27.02
2023-03-18T09:11:24.843Z,29.20
2023-03-18T09:13:53.631Z,26.27
2023-03-18T09:16:21.838Z,26.25
2023-03-18T09:18:51.355Z,25.15
2023-03-18T09:21:20.308Z,27.60
2023-03-18T09:23:49.637Z,29.00
2023-03-18T09:26:18.353Z,24.10
2023-03-18T09:28:46.496Z,25.92
2023-03-18T09:31:15.672Z,26.17
2023-03-18T09:33:43.861Z,22.20
2023-03-18T09:36:13.906Z,21.73
2023-03-18T09:38:42.528Z,20.38
2023-03-18T09:41:30.861Z,22.48
2023-03-18T09:44:10.609Z,21.25
2023-03-18T09:46:54.019Z,22.02
2023-03-18T09:49:43.901Z,24.20
2023-03-18T09:52:23.249Z,26.60
2023-03-18T09:54:58.799Z,26.13
2023-03-18T09:57:30.011Z,28.25
2023-03-18T10:00:06.344Z,29.23
2023-03-18T10:02:39.721Z,28.05
2023-03-18T10:05:13.676Z,29.20
2023-03-18T10:07:44.683Z,25.15
2023-03-18T10:10:23.119Z,26.38
2023-03-18T10:12:57.036Z,28.48
2023-03-18T10:15:32.049Z,27.00
2023-03-18T10:18:06.271Z,22.65
2023-03-18T10:20:43.248Z,23.27
2023-03-18T10:23:26.687Z,23.00
2023-03-18T10:25:57.761Z,23.10
2023-03-18T10:29:00.451Z,19.73
2023-03-18T10:31:37.601Z,18.10
2023-03-18T10:34:11.560Z,19.55
2023-03-18T10:36:47.400Z,18.48
2023-03-18T10:39:20.365Z,16.23
2023-03-18T10:41:51.215Z,18.70
2023-03-18T10:44:23.931Z,16.67
2023-03-18T10:46:58.528Z,17.38
2023-03-18T10:49:31.154Z,14.60
2023-03-18T10:52:06.156Z,15.60
2023-03-18T10:54:38.742Z,16.83
2023-03-18T10:57:07.172Z,17.08
2023-03-18T10:59:35.609Z,17.55
2023-03-18T11:02:06.442Z,15.75
2023-03-18T11:04:39.878Z,17.23
2023-03-18T11:07:15.506Z,14.75
2023-03-18T11:09:45.608Z,14.10
2023-03-18T11:12:19.327Z,13.90
2023-03-18T11:14:49.931Z,17.02
2023-03-18T11:17:23.925Z,15.93
2023-03-18T11:20:02.236Z,16.33
2023-03-18T11:22:33.126Z,16.25
2023-03-18T11:25:07.101Z,13.95
2023-03-18T11:27:39.500Z,17.90
2023-03-18T11:30:32.730Z,14.10
2023-03-18T11:33:06.030Z,16.75
2023-03-18T11:38:07.557Z,15.57
2023-03-18T11:40:41.143Z,16.48
2023-03-18T11:43:18.842Z,15.45
2023-03-18T11:45:59.041Z,14.10
2023-03-18T11:48:36.930Z,16.02
2023-03-18T11:51:27.098Z,14.35
2023-03-18T11:54:08.548Z,14.75
2023-03-18T11:56:43.724Z,12.60
2023-03-18T11:59:33.584Z,14.48
2023-03-18T12:02:25.248Z,14.35
2023-03-18T12:05:22.560Z,14.60
2023-03-18T12:08:04.140Z,14.93
2023-03-18T12:10:36.437Z,14.27
2023-03-18T12:15:58.790Z,14.35
2023-03-18T12:18:45.724Z,17.75
2023-03-18T12:21:33.480Z,14.25
2023-03-18T12:24:24.254Z,18.25
2023-03-18T12:27:02.934Z,14.93
2023-03-18T12:29:45.999Z,12.68
2023-03-18T12:32:26.412Z,12.95
2023-03-18T12:35:11.948Z,10.55
2023-03-18T12:37:52.492Z,10.40
2023-03-18T12:40:36.367Z,12.52
2023-03-18T12:43:28.661Z,9.23
2023-03-18T12:46:03.139Z,8.48
2023-03-18T12:48:44.088Z,6.75
2023-03-18T12:51:18.264Z,8.97
2023-03-18T12:53:50.344Z,7.72
2023-03-18T12:56:21.712Z,7.47
2023-03-18T12:58:54.128Z,6.70
2023-03-18T13:01:25.852Z,6.65
2023-03-18T13:03:58.654Z,6.28
2023-03-18T13:06:32.076Z,5.43
2023-03-18T13:09:15.526Z,5.68
2023-03-18T13:12:12.613Z,6.68
2023-03-18T13:14:49.585Z,4.70
2023-03-18T13:17:25.613Z,4.63
2023-03-18T13:19:58.187Z,5.28
2023-03-18T13:22:47.176Z,6.32
2023-03-18T13:25:25.164Z,8.65
2023-03-18T13:28:09.732Z,9.07
2023-03-18T13:30:54.031Z,8.35
2023-03-18T13:33:56.511Z,9.35
2023-03-18T13:36:49.292Z,6.65
2023-03-18T13:39:27.742Z,7.05
2023-03-18T13:42:17.881Z,6.80
2023-03-18T13:44:51.195Z,7.57
2023-03-18T13:47:21.783Z,5.70
2023-03-18T13:49:59.059Z,5.15
2023-03-18T13:52:36.524Z,7.07
2023-03-18T13:55:08.366Z,5.85
2023-03-18T13:57:48.925Z,7.75
2023-03-18T14:00:33.360Z,4.03
2023-03-18T14:03:23.302Z,5.63
2023-03-18T14:05:52.437Z,3.72
2023-03-18T14:08:48.560Z,3.92
2023-03-18T14:11:47.993Z,4.60
2023-03-18T14:14:57.887Z,3.95
2023-03-18T14:17:47.576Z,4.90
2023-03-18T14:20:40.703Z,5.15
2023-03-18T14:23:33.466Z,3.58
2023-03-18T14:26:05.101Z,4.30
2023-03-18T14:28:45.404Z,5.72
2023-03-18T14:31:35.379Z,6.88
2023-03-18T14:34:19.904Z,4.40
2023-03-18T14:37:25.393Z,5.28
2023-03-18T14:39:56.492Z,4.80
2023-03-18T14:42:38.973Z,6.03
2023-03-18T14:45:14.632Z,5.10
2023-03-18T14:47:47.733Z,3.75
2023-03-18T14:50:28.871Z,4.03
2023-03-18T14:53:03.969Z,3.97
2023-03-18T14:55:35.461Z,4.65
2023-03-18T14:58:05.418Z,4.80
2023-03-18T15:00:37.285Z,5.60
2023-03-18T15:03:08.943Z,4.70
2023-03-18T15:05:40.151Z,4.45
2023-03-18T15:08:15.819Z,4.75
2023-03-18T15:10:44.570Z,6.63
2023-03-18T15:13:16.321Z,4.63
2023-03-18T15:15:44.372Z,3.85
2023-03-18T15:18:20.776Z,5.50
2023-03-18T15:20:52.841Z,4.85
2023-03-18T15:25:51.619Z,6.13
2023-03-18T15:28:25.020Z,4.90
2023-03-18T15:30:56.056Z,5.15
2023-03-18T15:33:27.244Z,5.85
2023-03-18T15:35:56.398Z,4.82
2023-03-18T15:38:28.966Z,5.53
2023-03-18T15:41:01.106Z,5.25
2023-03-18T15:46:02.714Z,5.13
2023-03-18T15:48:35.043Z,5.47
2023-03-18T15:51:05.298Z,4.88
2023-03-18T15:53:43.336Z,3.63
2023-03-18T15:56:18.273Z,4.78
2023-03-18T15:58:58.060Z,5.60
2023-03-18T16:01:26.071Z,6.10
2023-03-18T16:03:54.652Z,4.82
2023-03-18T16:06:23.488Z,4.28
2023-03-18T16:08:51.437Z,6.55
2023-03-18T16:11:19.593Z,4.70
2023-03-18T16:13:48.993Z,4.32
2023-03-18T16:16:21.301Z,5.20
2023-03-18T16:18:49.557Z,7.28
2023-03-18T16:21:17.829Z,4.70
2023-03-18T16:23:47.001Z,6.35
2023-03-18T16:26:17.890Z,4.57
2023-03-18T16:28:48.554Z,6.03
2023-03-18T16:31:18.711Z,5.75
2023-03-18T16:33:47.303Z,4.60
2023-03-18T16:36:26.066Z,4.72
2023-03-18T16:38:54.270Z,4.60
2023-03-18T16:41:22.491Z,4.93
2023-03-18T16:43:50.859Z,6.20
2023-03-18T16:46:20.466Z,4.30
2023-03-18T16:48:49.955Z,3.65
2023-03-18T16:51:18.986Z,5.32
2023-03-18T16:53:47.227Z,6.15
2023-03-18T16:56:17.993Z,4.28
2023-03-18T16:58:46.364Z,5.57
2023-03-18T17:01:16.712Z,4.18
2023-03-18T17:03:46.560Z,4.55
2023-03-18T17:06:15.177Z,5.00
2023-03-18T17:08:43.206Z,4.88
2023-03-18T17:11:18.104Z,3.47
2023-03-18T17:13:47.097Z,4.32
2023-03-18T17:16:19.535Z,3.90
2023-03-18T17:18:49.618Z,4.70
2023-03-18T17:21:18.237Z,4.95
2023-03-18T17:23:47.642Z,6.20
2023-03-18T17:26:16.177Z,6.95
2023-03-18T17:28:47.632Z,5.60
2023-03-18T17:31:16.800Z,4.32
2023-03-18T17:33:44.900Z,4.47
2023-03-18T17:36:14.227Z,4.93
2023-03-18T17:38:42.201Z,6.35
2023-03-18T17:41:18.947Z,8.23
2023-03-18T17:43:47.350Z,6.70
2023-03-18T17:46:15.446Z,8.43
2023-03-18T17:48:43.744Z,8.23
2023-03-18T17:51:17.469Z,8.98
2023-03-18T17:53:47.893Z,7.47
2023-03-18T17:56:17.802Z,7.53
2023-03-18T17:58:47.417Z,6.05
2023-03-18T18:01:18.399Z,5.90
2023-03-18T18:03:47.575Z,8.60
2023-03-18T18:06:20.362Z,14.63
2023-03-18T18:08:48.766Z,10.13
2023-03-18T18:11:20.864Z,10.40
2023-03-18T18:13:50.000Z,11.02
2023-03-18T18:16:18.825Z,7.35
2023-03-18T18:18:49.700Z,7.63
2023-03-18T18:21:21.650Z,16.25
2023-03-18T18:23:49.623Z,8.20
2023-03-18T18:26:19.574Z,7.75
2023-03-18T18:28:49.432Z,8.73
2023-03-18T18:31:19.335Z,7.55
2023-03-18T18:33:50.123Z,10.60
2023-03-18T18:36:19.647Z,9.63
2023-03-18T18:38:47.586Z,8.45
2023-03-18T18:41:15.521Z,8.20
2023-03-18T18:43:43.565Z,9.18
2023-03-18T18:46:14.773Z,11.02
2023-03-18T18:48:44.713Z,9.47
2023-03-18T18:51:17.445Z,9.25
2023-03-18T18:53:47.756Z,9.38
2023-03-18T18:56:19.708Z,9.38
2023-03-18T18:58:49.349Z,9.70
2023-03-18T19:01:18.389Z,11.73
2023-03-18T19:03:48.280Z,14.27
2023-03-18T19:06:26.182Z,15.27
2023-03-18T19:08:57.757Z,11.77
2023-03-18T19:11:26.714Z,7.40
2023-03-18T19:13:55.345Z,6.88
2023-03-18T19:16:30.392Z,8.57
2023-03-18T19:18:59.912Z,6.55
2023-03-18T19:21:28.614Z,5.93
2023-03-18T19:23:58.750Z,10.43
2023-03-18T19:26:27.332Z,6.95
2023-03-18T19:28:59.400Z,8.50
2023-03-18T19:31:30.640Z,9.32
2023-03-18T19:34:00.680Z,8.15
2023-03-18T19:36:30.966Z,10.73
2023-03-18T19:39:02.310Z,9.77
2023-03-18T19:41:31.588Z,12.00
2023-03-18T19:44:04.191Z,13.10
2023-03-18T19:46:39.120Z,12.10
2023-03-18T19:49:14.077Z,23.77
2023-03-18T19:51:42.589Z,13.05
2023-03-18T19:54:33.720Z,12.52
2023-03-18T19:57:04.246Z,15.23
2023-03-18T19:59:38.644Z,14.73
2023-03-18T20:02:19.272Z,12.57
2023-03-18T20:04:49.451Z,12.43
2023-03-18T20:07:19.315Z,11.80
2023-03-18T20:09:49.678Z,12.52
2023-03-18T20:12:26.912Z,12.43
2023-03-18T20:14:55.202Z,12.82
2023-03-18T20:17:36.698Z,18.45
2023-03-18T20:20:05.447Z,16.88
2023-03-18T20:22:37.642Z,16.10
2023-03-18T20:25:13.531Z,17.95
2023-03-18T20:27:41.672Z,18.48
2023-03-18T20:30:24.218Z,19.92
2023-03-18T20:32:52.541Z,21.77
2023-03-18T20:35:21.403Z,18.73
2023-03-18T20:37:49.678Z,21.52
2023-03-18T20:40:23.114Z,18.20
2023-03-18T20:42:52.573Z,22.73
2023-03-18T20:45:22.373Z,22.75
2023-03-18T20:47:51.123Z,17.92
2023-03-18T20:50:21.406Z,19.73
2023-03-18T20:52:50.718Z,21.40
2023-03-18T20:55:29.179Z,18.63
2023-03-18T20:57:57.918Z,19.00
2023-03-18T21:00:27.855Z,24.25
2023-03-18T21:02:58.007Z,24.55
2023-03-18T21:05:26.176Z,22.15
2023-03-18T21:07:54.364Z,26.35
2023-03-18T21:10:26.093Z,26.85
2023-03-18T21:12:54.460Z,26.77
2023-03-18T21:15:24.309Z,25.08
2023-03-18T21:17:52.754Z,25.27
2023-03-18T21:20:23.210Z,25.33
2023-03-18T21:22:52.197Z,24.38
2023-03-18T21:25:21.800Z,21.13
2023-03-18T21:27:51.777Z,25.30
2023-03-18T21:30:22.169Z,25.38
2023-03-18T21:32:51.222Z,25.52
2023-03-18T21:35:21.656Z,27.75
2023-03-18T21:37:49.657Z,26.98
2023-03-18T21:40:20.334Z,27.67
2023-03-18T21:42:49.257Z,27.63
2023-03-18T21:45:20.558Z,19.55
2023-03-18T21:47:48.864Z,15.15
2023-03-18T21:50:22.134Z,19.27
2023-03-18T21:52:50.375Z,21.45
2023-03-18T21:55:18.697Z,20.77
2023-03-18T21:57:48.812Z,18.45
2023-03-18T22:00:21.736Z,21.40
2023-03-18T22:02:50.457Z,22.27
2023-03-18T22:05:20.424Z,19.60
2023-03-18T22:07:50.285Z,22.30
2023-03-18T22:10:20.288Z,16.15
2023-03-18T22:12:48.386Z,18.88
2023-03-18T22:15:39.121Z,18.92
2023-03-18T22:18:08.389Z,20.10
2023-03-18T22:20:37.274Z,21.80
2023-03-18T22:23:14.697Z,20.52
2023-03-18T22:25:43.403Z,22.17
2023-03-18T22:28:12.716Z,22.85
2023-03-18T22:30:44.079Z,21.95
2023-03-18T22:33:20.157Z,14.47
2023-03-18T22:35:48.706Z,20.42
2023-03-18T22:38:18.434Z,21.00
2023-03-18T22:40:48.314Z,22.25
2023-03-18T22:43:26.824Z,22.00
2023-03-18T22:45:56.805Z,19.13
2023-03-18T22:48:24.853Z,20.60
2023-03-18T22:50:53.691Z,24.95
2023-03-18T22:53:23.806Z,25.85
2023-03-18T22:55:54.481Z,22.20
2023-03-18T22:58:24.792Z,26.73
2023-03-18T23:00:53.241Z,27.27
2023-03-18T23:03:24.458Z,28.23
2023-03-18T23:05:54.437Z,25.27
2023-03-18T23:08:23.641Z,26.30
2023-03-18T23:10:53.550Z,29.27
2023-03-18T23:13:28.614Z,33.95
2023-03-18T23:15:58.131Z,32.92
2023-03-18T23:18:27.608Z,28.25
2023-03-18T23:20:55.935Z,35.28
2023-03-18T23:23:23.992Z,30.60
2023-03-18T23:25:53.400Z,36.78
2023-03-18T23:28:21.509Z,40.22
2023-03-18T23:30:51.065Z,38.10
2023-03-18T23:33:19.848Z,35.70
2023-03-18T23:35:49.275Z,27.30
2023-03-18T23:38:17.499Z,38.10
2023-03-18T23:40:45.667Z,39.08
2023-03-18T23:43:13.674Z,41.38
2023-03-18T23:45:41.885Z,41.63
2023-03-18T23:48:10.020Z,41.47
2023-03-18T23:50:38.039Z,37.90
2023-03-18T23:53:07.381Z,33.65
2023-03-18T23:55:36.043Z,44.25
2023-03-18T23:58:04.204Z,45.10
